Time;durP1;ratioP1;P1;durP2;ratioP2;P2;SDS_P1;SDS_P2;PMS_P1;PMS_P2;Temp;Humidity;BMP_temperature;BMP_pressure;BME280_temperature;BME280_humidity;BME280_pressure;Samples;Min_cycle;Max_cycle;Signal;HPM_P1;HPM_P2
2023/06/30 00:01:57;;;;;;;4.93;1.33;;;;;;;;;;5029585;28;20431;-62
2023/06/30 00:04:27;;;;;;;7.50;1.40;;;;;;;;;;5041989;28;20037;-61
2023/06/30 00:06:56;;;;;;;5.22;1.10;;;;;;;;;;5029045;28;20044;-62
2023/06/30 00:09:26;;;;;;;7.43;1.90;;;;;;;;;;5034384;28;20032;-61
2023/06/30 00:11:55;;;;;;;5.18;1.10;;;;;;;;;;5034210;28;20051;-62
2023/06/30 00:14:22;;;;;;;5.00;1.43;;;;;;;;;;5029717;28;20051;-62
2023/06/30 00:16:50;;;;;;;5.38;1.40;;;;;;;;;;5039658;28;20722;-62
2023/06/30 00:19:19;;;;;;;7.43;1.55;;;;;;;;;;5033458;28;20052;-61
2023/06/30 00:21:48;;;;;;;5.85;1.10;;;;;;;;;;5029741;28;20059;-62
2023/06/30 00:24:16;;;;;;;4.55;1.30;;;;;;;;;;5025508;28;20723;-61
2023/06/30 00:26:45;;;;;;;4.77;1.00;;;;;;;;;;5042314;28;20056;-62
2023/06/30 00:29:12;;;;;;;5.38;1.10;;;;;;;;;;5046864;28;20041;-62
2023/06/30 00:31:40;;;;;;;5.57;1.20;;;;;;;;;;5025916;28;20037;-61
2023/06/30 00:34:09;;;;;;;6.07;1.05;;;;;;;;;;5039497;28;20498;-61
2023/06/30 00:36:42;;;;;;;5.05;1.25;;;;;;;;;;5044834;28;20122;-62
2023/06/30 00:39:10;;;;;;;4.87;1.13;;;;;;;;;;5026683;28;20043;-61
2023/06/30 00:41:38;;;;;;;4.63;0.90;;;;;;;;;;5044887;28;20053;-62
2023/06/30 00:44:07;;;;;;;5.07;1.10;;;;;;;;;;5013476;28;20048;-61
2023/06/30 00:46:35;;;;;;;5.05;1.23;;;;;;;;;;5038495;28;20047;-62
2023/06/30 00:49:03;;;;;;;4.25;1.20;;;;;;;;;;5029789;28;22082;-61
2023/06/30 00:51:33;;;;;;;4.60;1.10;;;;;;;;;;5031107;28;20045;-61
2023/06/30 00:54:00;;;;;;;4.93;1.38;;;;;;;;;;5028555;28;20036;-62
2023/06/30 00:56:28;;;;;;;3.88;1.25;;;;;;;;;;5034509;28;20051;-62
2023/06/30 00:58:57;;;;;;;7.13;1.17;;;;;;;;;;5021193;28;20036;-61
2023/06/30 01:01:30;;;;;;;7.03;1.17;;;;;;;;;;5039313;28;20051;-61
2023/06/30 01:04:03;;;;;;;5.43;1.13;;;;;;;;;;5032839;28;20637;-61
2023/06/30 01:06:33;;;;;;;3.47;0.85;;;;;;;;;;5039665;28;20082;-61
2023/06/30 01:09:03;;;;;;;4.70;1.17;;;;;;;;;;5038034;28;20047;-61
2023/06/30 01:11:31;;;;;;;5.45;1.40;;;;;;;;;;5027751;28;20048;-61
2023/06/30 01:14:03;;;;;;;6.55;1.58;;;;;;;;;;5037591;28;20535;-61
2023/06/30 01:16:34;;;;;;;5.53;1.57;;;;;;;;;;5023190;28;20067;-59
2023/06/30 01:19:03;;;;;;;4.47;1.10;;;;;;;;;;5032771;28;20049;-61
2023/06/30 01:21:31;;;;;;;5.88;1.48;;;;;;;;;;5032018;28;20128;-61
2023/06/30 01:24:05;;;;;;;6.63;1.35;;;;;;;;;;5043118;28;20094;-61
2023/06/30 01:26:34;;;;;;;7.70;1.40;;;;;;;;;;5044711;28;20059;-61
2023/06/30 01:29:03;;;;;;;7.93;1.40;;;;;;;;;;5032515;28;20048;-61
2023/06/30 01:31:31;;;;;;;4.88;1.25;;;;;;;;;;5031318;28;20538;-61
2023/06/30 01:34:01;;;;;;;7.93;1.60;;;;;;;;;;5035555;28;20041;-61
2023/06/30 01:36:29;;;;;;;7.00;1.40;;;;;;;;;;5026515;28;20032;-60
2023/06/30 01:38:57;;;;;;;6.03;1.58;;;;;;;;;;5035623;28;20072;-61
2023/06/30 01:41:25;;;;;;;4.20;1.10;;;;;;;;;;5037501;28;20709;-60
2023/06/30 01:43:54;;;;;;;6.82;1.60;;;;;;;;;;5028633;28;20047;-60
2023/06/30 01:46:22;;;;;;;6.65;1.80;;;;;;;;;;5006377;28;20656;-61
2023/06/30 01:48:50;;;;;;;5.18;1.33;;;;;;;;;;5032224;28;20414;-61
2023/06/30 01:51:20;;;;;;;5.53;1.65;;;;;;;;;;5030028;28;20542;-60
2023/06/30 01:53:51;;;;;;;5.17;1.43;;;;;;;;;;5031221;28;20040;-60
2023/06/30 01:56:19;;;;;;;4.47;1.30;;;;;;;;;;5040111;28;20060;-61
2023/06/30 01:58:47;;;;;;;5.43;1.50;;;;;;;;;;5042540;28;20131;-60
2023/06/30 02:01:15;;;;;;;6.50;1.58;;;;;;;;;;5021151;28;20067;-60
2023/06/30 02:03:43;;;;;;;5.05;1.58;;;;;;;;;;5030085;28;20068;-61
2023/06/30 02:06:11;;;;;;;5.97;1.60;;;;;;;;;;5027867;28;20059;-61
2023/06/30 02:08:40;;;;;;;5.45;1.52;;;;;;;;;;5041011;28;20127;-61
2023/06/30 02:11:08;;;;;;;6.55;1.58;;;;;;;;;;5029947;28;20453;-60
2023/06/30 02:13:35;;;;;;;4.43;1.23;;;;;;;;;;5038360;28;20497;-59
2023/06/30 02:16:03;;;;;;;5.47;1.40;;;;;;;;;;5020486;28;20040;-60
2023/06/30 02:18:31;;;;;;;6.13;1.43;;;;;;;;;;5039528;28;20495;-60
2023/06/30 02:20:58;;;;;;;4.78;1.65;;;;;;;;;;5034326;28;20121;-61
2023/06/30 02:23:28;;;;;;;5.60;1.60;;;;;;;;;;5026665;28;20037;-61
2023/06/30 02:25:57;;;;;;;6.28;1.33;;;;;;;;;;5018316;28;20127;-60
2023/06/30 02:28:25;;;;;;;7.75;1.70;;;;;;;;;;5027635;28;20043;-63
2023/06/30 02:30:53;;;;;;;5.20;1.37;;;;;;;;;;5049784;28;20051;-63
2023/06/30 02:33:26;;;;;;;5.75;1.20;;;;;;;;;;5034324;28;20052;-60
2023/06/30 02:35:54;;;;;;;4.70;1.52;;;;;;;;;;5026511;28;20127;-60
2023/06/30 02:38:22;;;;;;;5.18;1.67;;;;;;;;;;5033388;28;20536;-61
2023/06/30 02:40:50;;;;;;;6.45;1.70;;;;;;;;;;5023581;28;20765;-61
2023/06/30 02:43:19;;;;;;;7.27;1.80;;;;;;;;;;5039781;28;20032;-61
2023/06/30 02:45:47;;;;;;;9.38;2.17;;;;;;;;;;5034579;28;20049;-61
2023/06/30 02:48:15;;;;;;;9.23;1.80;;;;;;;;;;5031220;28;20657;-60
2023/06/30 02:50:44;;;;;;;5.68;1.40;;;;;;;;;;5035294;28;20041;-61
2023/06/30 02:53:11;;;;;;;5.75;1.95;;;;;;;;;;5024348;28;20045;-61
2023/06/30 02:55:39;;;;;;;4.47;1.43;;;;;;;;;;5032332;28;20443;-61
2023/06/30 02:58:07;;;;;;;6.50;1.40;;;;;;;;;;5026843;28;20064;-61
2023/06/30 03:00:36;;;;;;;7.43;2.35;;;;;;;;;;5046661;28;21713;-60
2023/06/30 03:03:04;;;;;;;9.40;1.77;;;;;;;;;;5034682;28;20407;-61
2023/06/30 03:05:34;;;;;;;8.93;1.80;;;;;;;;;;5030529;28;20045;-60
2023/06/30 03:08:03;;;;;;;9.50;2.07;;;;;;;;;;5028358;28;20041;-61
2023/06/30 03:10:32;;;;;;;11.35;2.55;;;;;;;;;;5026747;28;20052;-61
2023/06/30 03:13:00;;;;;;;5.63;1.67;;;;;;;;;;5026795;28;20450;-61
2023/06/30 03:15:27;;;;;;;19.67;1.70;;;;;;;;;;5028220;28;20062;-60
2023/06/30 03:17:57;;;;;;;10.73;1.73;;;;;;;;;;5034133;28;20048;-61
2023/06/30 03:20:24;;;;;;;8.73;1.90;;;;;;;;;;5031661;28;20558;-61
2023/06/30 03:22:52;;;;;;;8.35;1.75;;;;;;;;;;5035309;28;20045;-61
2023/06/30 03:25:21;;;;;;;9.07;2.08;;;;;;;;;;5034238;28;20041;-61
2023/06/30 03:27:50;;;;;;;11.13;2.00;;;;;;;;;;5033690;28;20407;-61
2023/06/30 03:30:18;;;;;;;5.53;1.67;;;;;;;;;;5001813;28;20037;-61
2023/06/30 03:32:45;;;;;;;6.27;1.90;;;;;;;;;;5003301;28;20672;-61
2023/06/30 03:35:15;;;;;;;7.10;1.60;;;;;;;;;;5039649;28;20041;-61
2023/06/30 03:37:42;;;;;;;8.10;1.92;;;;;;;;;;5036921;28;20161;-62
2023/06/30 03:40:11;;;;;;;8.73;2.35;;;;;;;;;;5030186;28;20060;-61
2023/06/30 03:42:38;;;;;;;7.38;1.60;;;;;;;;;;5040060;28;20033;-61
2023/06/30 03:45:07;;;;;;;7.37;1.70;;;;;;;;;;5022703;28;20051;-62
2023/06/30 03:47:34;;;;;;;8.52;1.83;;;;;;;;;;4997925;28;20682;-58
2023/06/30 03:50:02;;;;;;;7.63;2.10;;;;;;;;;;5032001;28;20303;-61
2023/06/30 03:52:31;;;;;;;7.28;2.03;;;;;;;;;;5047404;28;20044;-61
2023/06/30 03:54:59;;;;;;;10.55;2.17;;;;;;;;;;5025218;28;20043;-61
2023/06/30 03:57:27;;;;;;;9.50;1.90;;;;;;;;;;5018238;28;20121;-60
2023/06/30 03:59:54;;;;;;;7.43;2.08;;;;;;;;;;5032908;28;20049;-61
2023/06/30 04:02:22;;;;;;;6.68;2.10;;;;;;;;;;5025526;28;20059;-61
2023/06/30 04:04:50;;;;;;;11.23;2.75;;;;;;;;;;5027985;28;20077;-62
2023/06/30 04:07:18;;;;;;;7.78;2.47;;;;;;;;;;5032482;28;20045;-61
2023/06/30 04:09:47;;;;;;;8.67;2.60;;;;;;;;;;5032965;28;20051;-62
2023/06/30 04:12:15;;;;;;;6.25;2.05;;;;;;;;;;5026248;28;21272;-61
2023/06/30 04:14:48;;;;;;;10.77;1.90;;;;;;;;;;5043172;28;20036;-61
2023/06/30 04:17:15;;;;;;;10.27;2.17;;;;;;;;;;5032710;28;20045;-60
2023/06/30 04:19:43;;;;;;;8.40;2.28;;;;;;;;;;5043649;28;20051;-61
2023/06/30 04:22:11;;;;;;;10.37;1.90;;;;;;;;;;5032089;28;20041;-62
2023/06/30 04:24:38;;;;;;;9.55;1.90;;;;;;;;;;5025523;28;20829;-62
2023/06/30 04:27:08;;;;;;;6.32;2.15;;;;;;;;;;5037917;28;20048;-62
2023/06/30 04:29:35;;;;;;;10.43;2.13;;;;;;;;;;5044577;28;20075;-59
2023/06/30 04:32:05;;;;;;;8.68;2.45;;;;;;;;;;5036075;28;20044;-61
2023/06/30 04:34:34;;;;;;;7.27;2.03;;;;;;;;;;5034165;28;20037;-62
2023/06/30 04:37:02;;;;;;;8.93;1.95;;;;;;;;;;5035685;28;20120;-61
2023/06/30 04:39:30;;;;;;;8.27;1.70;;;;;;;;;;5037309;28;20742;-61
2023/06/30 04:41:59;;;;;;;9.88;2.10;;;;;;;;;;5032494;28;20056;-61
2023/06/30 04:44:30;;;;;;;10.07;1.90;;;;;;;;;;5030351;28;20040;-61
2023/06/30 04:46:58;;;;;;;8.27;2.23;;;;;;;;;;5040712;28;20559;-61
2023/06/30 04:49:25;;;;;;;7.10;1.90;;;;;;;;;;5021050;28;20451;-61
2023/06/30 04:51:53;;;;;;;8.00;2.10;;;;;;;;;;5038542;28;20037;-61
2023/06/30 04:54:22;;;;;;;7.32;2.10;;;;;;;;;;5029277;28;20044;-62
2023/06/30 04:56:49;;;;;;;10.40;2.30;;;;;;;;;;5031884;28;20116;-62
2023/06/30 04:59:17;;;;;;;8.53;1.80;;;;;;;;;;5033876;28;20409;-60
2023/06/30 05:01:46;;;;;;;10.15;1.95;;;;;;;;;;5037551;28;20046;-61
2023/06/30 05:04:14;;;;;;;9.13;1.90;;;;;;;;;;5031958;28;20507;-62
2023/06/30 05:06:42;;;;;;;8.43;2.22;;;;;;;;;;5024971;28;20033;-59
2023/06/30 05:09:10;;;;;;;6.70;1.77;;;;;;;;;;5028760;28;20040;-61
2023/06/30 05:11:38;;;;;;;9.83;2.27;;;;;;;;;;5022839;28;20736;-61
2023/06/30 05:14:06;;;;;;;7.72;1.60;;;;;;;;;;5043888;28;20119;-61
2023/06/30 05:16:33;;;;;;;9.35;1.33;;;;;;;;;;5029550;28;20048;-60
2023/06/30 05:19:03;;;;;;;10.25;1.77;;;;;;;;;;5045998;28;20044;-61
2023/06/30 05:21:30;;;;;;;8.27;1.55;;;;;;;;;;5032911;28;20068;-61
2023/06/30 05:23:58;;;;;;;8.23;1.63;;;;;;;;;;5021230;28;20049;-61
2023/06/30 05:26:26;;;;;;;9.95;1.98;;;;;;;;;;5038883;28;20036;-61
2023/06/30 05:28:54;;;;;;;10.65;2.15;;;;;;;;;;5025472;28;20120;-61
2023/06/30 05:31:30;;;;;;;7.85;1.50;;;;;;;;;;5046025;28;20048;-61
2023/06/30 05:33:58;;;;;;;6.82;1.48;;;;;;;;;;5015559;28;20043;-61
2023/06/30 05:36:28;;;;;;;6.83;1.87;;;;;;;;;;5031683;28;20388;-61
2023/06/30 05:38:55;;;;;;;7.10;1.60;;;;;;;;;;5039095;28;20408;-60
2023/06/30 05:41:23;;;;;;;8.75;2.03;;;;;;;;;;5024242;28;20040;-61
2023/06/30 05:43:51;;;;;;;10.82;1.83;;;;;;;;;;5034678;28;20052;-61
2023/06/30 05:46:19;;;;;;;8.02;1.90;;;;;;;;;;5049704;28;20059;-62
2023/06/30 05:48:46;;;;;;;8.37;2.03;;;;;;;;;;5044378;28;20055;-61
2023/06/30 05:51:14;;;;;;;9.57;1.67;;;;;;;;;;5022378;28;20599;-63
2023/06/30 05:53:43;;;;;;;7.60;1.70;;;;;;;;;;5050883;28;20067;-62
2023/06/30 05:56:12;;;;;;;7.15;1.45;;;;;;;;;;5039280;28;20060;-61
2023/06/30 05:58:40;;;;;;;11.25;2.53;;;;;;;;;;5033206;28;20377;-62
2023/06/30 06:01:08;;;;;;;9.07;2.10;;;;;;;;;;5045179;28;20123;-61
2023/06/30 06:03:36;;;;;;;8.68;1.60;;;;;;;;;;5022386;28;20108;-62
2023/06/30 06:06:04;;;;;;;7.80;1.35;;;;;;;;;;5041802;28;20036;-61
2023/06/30 06:08:32;;;;;;;12.23;2.10;;;;;;;;;;5028189;28;20045;-61
2023/06/30 06:11:01;;;;;;;5.22;1.70;;;;;;;;;;5038017;28;20036;-62
2023/06/30 06:13:32;;;;;;;12.47;1.93;;;;;;;;;;5021459;28;20040;-61
2023/06/30 06:16:01;;;;;;;5.15;1.40;;;;;;;;;;5033693;28;20036;-62
2023/06/30 06:18:29;;;;;;;7.18;1.83;;;;;;;;;;5015230;28;20059;-62
2023/06/30 06:20:57;;;;;;;9.13;1.65;;;;;;;;;;5034880;28;20060;-62
2023/06/30 06:23:25;;;;;;;6.93;1.52;;;;;;;;;;5037552;28;20051;-62
2023/06/30 06:25:52;;;;;;;6.63;1.63;;;;;;;;;;5025721;28;20563;-62
2023/06/30 06:28:21;;;;;;;6.03;1.33;;;;;;;;;;5044852;28;20040;-62
2023/06/30 06:30:50;;;;;;;9.25;2.00;;;;;;;;;;5028733;28;20052;-61
2023/06/30 06:33:17;;;;;;;12.85;1.80;;;;;;;;;;5027536;28;20044;-62
2023/06/30 06:35:46;;;;;;;10.00;1.85;;;;;;;;;;5027694;28;20426;-61
2023/06/30 06:38:18;;;;;;;7.50;1.90;;;;;;;;;;5027383;28;20123;-61
2023/06/30 06:40:46;;;;;;;8.32;1.70;;;;;;;;;;5045286;28;20387;-60
2023/06/30 06:43:14;;;;;;;7.63;1.73;;;;;;;;;;5009547;28;20048;-61
2023/06/30 06:45:43;;;;;;;7.05;1.77;;;;;;;;;;5034073;28;20054;-61
2023/06/30 06:48:20;;;;;;;8.27;1.90;;;;;;;;;;5020528;28;20041;-61
2023/06/30 06:50:48;;;;;;;8.53;1.73;;;;;;;;;;5043487;28;20596;-61
2023/06/30 06:53:19;;;;;;;8.20;1.35;;;;;;;;;;5026264;28;20037;-60
2023/06/30 06:55:47;;;;;;;10.23;1.30;;;;;;;;;;5035672;28;20047;-61
2023/06/30 06:58:15;;;;;;;6.13;1.33;;;;;;;;;;5044104;28;20053;-55
2023/06/30 07:00:44;;;;;;;9.15;1.23;;;;;;;;;;5022471;28;20419;-61
2023/06/30 07:03:13;;;;;;;8.93;1.83;;;;;;;;;;5024858;28;20114;-60
2023/06/30 07:05:41;;;;;;;9.55;2.22;;;;;;;;;;5027419;28;20043;-63
2023/06/30 07:08:09;;;;;;;8.45;1.67;;;;;;;;;;5038911;28;20138;-63
2023/06/30 07:10:37;;;;;;;11.90;2.42;;;;;;;;;;5038944;28;20143;-62
2023/06/30 07:13:05;;;;;;;9.98;1.80;;;;;;;;;;5032126;28;20047;-63
2023/06/30 07:15:34;;;;;;;8.57;1.90;;;;;;;;;;5046242;28;20055;-62
2023/06/30 07:18:03;;;;;;;8.82;1.70;;;;;;;;;;5022317;28;20060;-63
2023/06/30 07:20:31;;;;;;;7.20;2.17;;;;;;;;;;5043325;28;20047;-62
2023/06/30 07:22:59;;;;;;;8.68;1.98;;;;;;;;;;5035436;28;20064;-60
2023/06/30 07:25:27;;;;;;;7.00;1.70;;;;;;;;;;5035202;28;20044;-60
2023/06/30 07:27:56;;;;;;;8.07;1.97;;;;;;;;;;5029494;28;20480;-61
2023/06/30 07:30:25;;;;;;;11.10;1.92;;;;;;;;;;5039973;28;20379;-60
2023/06/30 07:32:53;;;;;;;10.13;1.95;;;;;;;;;;5016747;28;20676;-61
2023/06/30 07:35:23;;;;;;;8.43;1.67;;;;;;;;;;5057629;28;20659;-61
2023/06/30 07:37:50;;;;;;;8.40;1.80;;;;;;;;;;5025190;28;20064;-61
2023/06/30 07:40:19;;;;;;;10.17;1.77;;;;;;;;;;5029192;28;20048;-61
2023/06/30 07:42:53;;;;;;;10.18;1.90;;;;;;;;;;5022623;28;20123;-62
2023/06/30 07:45:21;;;;;;;8.75;2.20;;;;;;;;;;5037998;28;20059;-62
2023/06/30 07:47:48;;;;;;;7.47;1.90;;;;;;;;;;5033623;28;20041;-61
2023/06/30 07:50:16;;;;;;;11.57;2.13;;;;;;;;;;5041375;28;20036;-61
2023/06/30 07:52:48;;;;;;;9.80;2.70;;;;;;;;;;5021638;28;20033;-62
2023/06/30 07:55:17;;;;;;;10.95;1.83;;;;;;;;;;5034367;28;20048;-61
2023/06/30 07:57:45;;;;;;;7.97;1.73;;;;;;;;;;5027872;28;20036;-62
2023/06/30 08:00:15;;;;;;;11.88;2.38;;;;;;;;;;5023314;28;20037;-61
2023/06/30 08:02:43;;;;;;;10.30;2.00;;;;;;;;;;5040548;28;20043;-61
2023/06/30 08:05:11;;;;;;;11.43;1.97;;;;;;;;;;5028381;28;20036;-62
2023/06/30 08:07:39;;;;;;;7.30;2.10;;;;;;;;;;5039155;28;20064;-62
2023/06/30 08:10:20;;;;;;;9.50;2.13;;;;;;;;;;5030101;28;20041;-62
2023/06/30 08:12:47;;;;;;;8.65;1.85;;;;;;;;;;5041072;28;20469;-62
2023/06/30 08:15:17;;;;;;;9.32;2.28;;;;;;;;;;5037631;28;20040;-61
2023/06/30 08:17:45;;;;;;;9.60;2.73;;;;;;;;;;5021043;28;20056;-61
2023/06/30 08:20:21;;;;;;;7.78;2.28;;;;;;;;;;5042086;28;20123;-61
2023/06/30 08:22:49;;;;;;;15.55;2.30;;;;;;;;;;5023211;28;20044;-61
2023/06/30 08:25:23;;;;;;;11.43;1.88;;;;;;;;;;5038995;28;20407;-61
2023/06/30 08:27:52;;;;;;;9.13;1.98;;;;;;;;;;5025316;28;20112;-61
2023/06/30 08:30:20;;;;;;;11.90;2.20;;;;;;;;;;5036642;28;20075;-60
2023/06/30 08:32:51;;;;;;;7.85;2.40;;;;;;;;;;5030528;28;20037;-61
2023/06/30 08:35:19;;;;;;;9.02;2.20;;;;;;;;;;5032863;28;20163;-61
2023/06/30 08:37:47;;;;;;;13.10;2.55;;;;;;;;;;5029668;28;20041;-61
2023/06/30 08:40:25;;;;;;;7.47;2.15;;;;;;;;;;5031856;28;20414;-60
2023/06/30 08:42:54;;;;;;;11.83;2.00;;;;;;;;;;4984444;28;20052;-60
2023/06/30 08:45:24;;;;;;;10.32;2.20;;;;;;;;;;5030362;28;20131;-60
2023/06/30 08:47:52;;;;;;;12.00;1.67;;;;;;;;;;5024446;28;20123;-60
2023/06/30 08:50:21;;;;;;;10.18;2.25;;;;;;;;;;5027631;28;20040;-60
2023/06/30 08:52:49;;;;;;;15.93;2.30;;;;;;;;;;5026626;28;20049;-61
2023/06/30 08:55:17;;;;;;;11.70;2.13;;;;;;;;;;5030656;28;20306;-61
2023/06/30 08:57:46;;;;;;;14.00;2.35;;;;;;;;;;5024530;28;20051;-61
2023/06/30 09:00:15;;;;;;;8.43;1.88;;;;;;;;;;5022614;28;20139;-60
2023/06/30 09:02:43;;;;;;;9.50;2.13;;;;;;;;;;5029707;28;20037;-60
2023/06/30 09:05:11;;;;;;;8.40;2.40;;;;;;;;;;5025192;28;20036;-60
2023/06/30 09:07:42;;;;;;;10.20;2.37;;;;;;;;;;5027625;28;20319;-61
2023/06/30 09:10:11;;;;;;;14.00;2.70;;;;;;;;;;5024644;28;20055;-61
2023/06/30 09:12:39;;;;;;;10.82;2.45;;;;;;;;;;5019267;28;20048;-60
2023/06/30 09:15:10;;;;;;;12.82;2.13;;;;;;;;;;5031807;28;20044;-61
2023/06/30 09:17:38;;;;;;;10.75;2.22;;;;;;;;;;5021262;28;20088;-60
2023/06/30 09:20:07;;;;;;;10.60;2.60;;;;;;;;;;5025686;28;20046;-62
2023/06/30 09:22:35;;;;;;;9.63;2.20;;;;;;;;;;5015495;28;20743;-63
2023/06/30 09:25:38;;;;;;;10.32;2.20;;;;;;;;;;5024707;28;20564;-59
2023/06/30 09:28:11;;;;;;;7.43;1.90;;;;;;;;;;5027077;28;20045;-60
2023/06/30 09:30:41;;;;;;;9.93;2.67;;;;;;;;;;5020134;28;20068;-60
2023/06/30 09:33:09;;;;;;;8.47;2.57;;;;;;;;;;5006889;28;20040;-62
2023/06/30 09:35:38;;;;;;;13.82;3.85;;;;;;;;;;5029063;28;20823;-62
2023/06/30 09:38:09;;;;;;;8.43;2.95;;;;;;;;;;5024027;28;20045;-61
2023/06/30 09:40:37;;;;;;;8.55;1.70;;;;;;;;;;5022011;28;20052;-61
2023/06/30 09:43:06;;;;;;;8.82;1.92;;;;;;;;;;5012817;28;20407;-62
2023/06/30 09:45:34;;;;;;;10.73;2.50;;;;;;;;;;5031653;28;21353;-61
2023/06/30 09:48:04;;;;;;;7.93;2.20;;;;;;;;;;5022169;28;20060;-62
2023/06/30 09:50:34;;;;;;;10.40;2.20;;;;;;;;;;3956558;28;10000709;-62
2023/06/30 09:53:02;;;;;;;11.77;2.50;;;;;;;;;;5021238;28;20478;-61
2023/06/30 09:55:30;;;;;;;7.75;1.92;;;;;;;;;;5001467;28;20052;-61
2023/06/30 09:57:57;;;;;;;10.13;2.25;;;;;;;;;;5030460;28;20036;-61
2023/06/30 10:00:25;;;;;;;9.80;2.25;;;;;;;;;;5023218;28;20046;-60
2023/06/30 10:03:05;;;;;;;8.00;2.13;;;;;;;;;;5020973;28;20639;-61
2023/06/30 10:05:33;;;;;;;14.73;2.88;;;;;;;;;;5027209;28;20445;-61
2023/06/30 10:08:01;;;;;;;11.45;2.53;;;;;;;;;;5024216;28;20049;-61
2023/06/30 10:10:30;;;;;;;10.02;2.60;;;;;;;;;;5031688;28;20052;-61
2023/06/30 10:12:58;;;;;;;9.98;2.67;;;;;;;;;;5013539;28;20495;-61
2023/06/30 10:15:27;;;;;;;8.63;2.50;;;;;;;;;;5032634;28;20037;-61
2023/06/30 10:17:56;;;;;;;9.07;2.22;;;;;;;;;;5022039;28;20044;-61
2023/06/30 10:20:25;;;;;;;8.43;2.28;;;;;;;;;;5031981;28;20507;-61
2023/06/30 10:23:09;;;;;;;10.95;2.28;;;;;;;;;;5016294;28;20054;-62
2023/06/30 10:25:38;;;;;;;12.52;3.00;;;;;;;;;;5020661;28;20048;-62
2023/06/30 10:28:06;;;;;;;10.50;3.07;;;;;;;;;;5033269;28;20121;-61
2023/06/30 10:30:34;;;;;;;9.23;2.70;;;;;;;;;;5017882;28;21096;-61
2023/06/30 10:33:02;;;;;;;8.60;2.53;;;;;;;;;;5021723;28;20049;-60
2023/06/30 10:35:32;;;;;;;7.13;2.15;;;;;;;;;;5011914;28;20029;-60
2023/06/30 10:38:00;;;;;;;7.65;1.70;;;;;;;;;;5031854;28;20135;-60
2023/06/30 10:40:28;;;;;;;8.67;1.93;;;;;;;;;;5028261;28;20066;-60
2023/06/30 10:42:57;;;;;;;7.20;2.50;;;;;;;;;;5013408;28;21182;-60
2023/06/30 10:45:28;;;;;;;9.00;1.92;;;;;;;;;;5028820;28;20596;-60
2023/06/30 10:47:56;;;;;;;7.38;2.60;;;;;;;;;;5020042;28;20052;-59
2023/06/30 10:50:24;;;;;;;6.53;2.35;;;;;;;;;;5025377;28;20495;-60
2023/06/30 10:53:16;;;;;;;8.10;2.13;;;;;;;;;;5003306;28;20107;-61
2023/06/30 10:55:45;;;;;;;7.80;2.20;;;;;;;;;;5026185;28;20416;-60
2023/06/30 10:58:22;;;;;;;7.47;2.10;;;;;;;;;;5031225;28;20048;-61
2023/06/30 11:01:02;;;;;;;5.07;1.60;;;;;;;;;;5036781;28;20064;-61
2023/06/30 11:04:04;;;;;;;6.43;1.95;;;;;;;;;;5043600;28;21062;-61
2023/06/30 11:06:35;;;;;;;6.33;1.50;;;;;;;;;;5027879;28;20123;-61
2023/06/30 11:09:09;;;;;;;6.72;1.67;;;;;;;;;;5021811;28;20040;-61
2023/06/30 11:11:47;;;;;;;9.38;2.22;;;;;;;;;;5027905;28;20048;-61
2023/06/30 11:14:30;;;;;;;6.75;1.70;;;;;;;;;;5038538;28;20127;-59
2023/06/30 11:17:01;;;;;;;5.68;1.25;;;;;;;;;;5023331;28;20048;-60
2023/06/30 11:19:29;;;;;;;7.97;2.20;;;;;;;;;;5031835;28;20119;-61
2023/06/30 11:22:16;;;;;;;7.68;1.50;;;;;;;;;;5030216;28;20067;-60
2023/06/30 11:24:45;;;;;;;5.75;1.58;;;;;;;;;;5031267;28;20055;-61
2023/06/30 11:27:13;;;;;;;6.72;1.77;;;;;;;;;;5035070;28;20055;-61
2023/06/30 11:29:41;;;;;;;5.47;1.33;;;;;;;;;;5035063;28;20044;-61
2023/06/30 11:32:09;;;;;;;7.77;1.70;;;;;;;;;;5028885;28;21207;-60
2023/06/30 11:34:37;;;;;;;6.85;1.70;;;;;;;;;;5035898;28;20059;-61
2023/06/30 11:37:05;;;;;;;5.93;2.10;;;;;;;;;;5032884;28;20029;-62
2023/06/30 11:39:35;;;;;;;6.03;1.65;;;;;;;;;;5034142;28;20041;-62
2023/06/30 11:42:05;;;;;;;5.47;1.58;;;;;;;;;;5037535;28;20068;-62
2023/06/30 11:44:36;;;;;;;6.90;2.20;;;;;;;;;;5036127;28;20051;-63
2023/06/30 11:47:04;;;;;;;6.90;2.15;;;;;;;;;;5035050;28;20059;-63
2023/06/30 11:49:35;;;;;;;5.75;1.60;;;;;;;;;;5029014;28;20816;-62
2023/06/30 11:52:04;;;;;;;10.93;2.78;;;;;;;;;;4685581;28;10000082;-62
2023/06/30 11:54:32;;;;;;;5.97;2.17;;;;;;;;;;5029500;28;20041;-62
2023/06/30 11:57:00;;;;;;;6.82;2.17;;;;;;;;;;5019991;28;20044;-62
2023/06/30 11:59:30;;;;;;;6.07;1.70;;;;;;;;;;5038335;28;20044;-61
2023/06/30 12:02:00;;;;;;;8.95;1.90;;;;;;;;;;5029827;28;20044;-62
2023/06/30 12:04:34;;;;;;;5.25;2.00;;;;;;;;;;5030518;28;20039;-62
2023/06/30 12:07:04;;;;;;;7.57;1.97;;;;;;;;;;5028604;28;20044;-62
2023/06/30 12:09:32;;;;;;;7.30;2.00;;;;;;;;;;5030125;28;20052;-62
2023/06/30 12:12:00;;;;;;;6.35;1.95;;;;;;;;;;5021811;28;20044;-62
2023/06/30 12:14:28;;;;;;;7.60;2.10;;;;;;;;;;5032145;28;20384;-62
2023/06/30 12:16:57;;;;;;;7.55;2.22;;;;;;;;;;5031503;28;20422;-61
2023/06/30 12:19:26;;;;;;;8.53;2.10;;;;;;;;;;5029002;28;20051;-62
2023/06/30 12:21:55;;;;;;;6.85;2.13;;;;;;;;;;5043650;28;20048;-63
2023/06/30 12:24:23;;;;;;;5.37;2.10;;;;;;;;;;4674633;28;10000582;-63
2023/06/30 12:26:51;;;;;;;5.30;1.70;;;;;;;;;;5042623;28;20847;-63
2023/06/30 12:29:20;;;;;;;6.28;1.60;;;;;;;;;;5026041;28;20033;-62
2023/06/30 12:31:48;;;;;;;7.40;2.50;;;;;;;;;;5038492;28;20076;-63
2023/06/30 12:34:32;;;;;;;7.70;2.55;;;;;;;;;;5040246;28;20048;-62
2023/06/30 12:37:01;;;;;;;8.73;2.13;;;;;;;;;;5039022;28;20721;-63
2023/06/30 12:39:28;;;;;;;5.53;2.43;;;;;;;;;;5025326;28;20067;-62
2023/06/30 12:41:56;;;;;;;7.28;2.03;;;;;;;;;;5023220;28;20050;-59
2023/06/30 12:44:30;;;;;;;9.55;2.20;;;;;;;;;;5038924;28;20506;-61
2023/06/30 12:47:00;;;;;;;6.40;2.40;;;;;;;;;;5039757;28;20056;-61
2023/06/30 12:49:28;;;;;;;8.60;2.13;;;;;;;;;;5037025;28;20116;-62
2023/06/30 12:51:58;;;;;;;6.73;2.50;;;;;;;;;;4686236;28;10000121;-60
2023/06/30 12:54:30;;;;;;;10.73;3.10;;;;;;;;;;5024533;28;20072;-60
2023/06/30 12:56:58;;;;;;;6.05;2.13;;;;;;;;;;5029765;28;20045;-61
2023/06/30 12:59:28;;;;;;;7.35;2.42;;;;;;;;;;5039407;28;20048;-60
2023/06/30 13:01:56;;;;;;;8.50;2.40;;;;;;;;;;5032626;28;20590;-56
2023/06/30 13:04:24;;;;;;;7.87;2.47;;;;;;;;;;5041815;28;20483;-61
2023/06/30 13:06:54;;;;;;;9.00;2.30;;;;;;;;;;5044326;28;20048;-61
2023/06/30 13:09:24;;;;;;;7.95;2.47;;;;;;;;;;5043449;28;20040;-61
2023/06/30 13:11:53;;;;;;;7.22;2.22;;;;;;;;;;5023907;28;20832;-61
2023/06/30 13:14:21;;;;;;;7.90;2.13;;;;;;;;;;5034333;28;20621;-61
2023/06/30 13:16:48;;;;;;;8.67;2.50;;;;;;;;;;5034631;28;20041;-59
2023/06/30 13:19:16;;;;;;;6.85;2.13;;;;;;;;;;5045910;28;20050;-61
2023/06/30 13:21:44;;;;;;;6.35;2.30;;;;;;;;;;5017976;28;20037;-61
2023/06/30 13:24:12;;;;;;;6.00;2.53;;;;;;;;;;5035776;28;20037;-61
2023/06/30 13:26:41;;;;;;;7.82;2.30;;;;;;;;;;5029396;28;20047;-61
2023/06/30 13:29:10;;;;;;;6.00;2.40;;;;;;;;;;5029023;28;20114;-61
2023/06/30 13:31:38;;;;;;;6.65;2.33;;;;;;;;;;5030487;28;20037;-61
2023/06/30 13:34:07;;;;;;;5.57;2.85;;;;;;;;;;5034058;28;20052;-61
2023/06/30 13:36:37;;;;;;;4.90;2.45;;;;;;;;;;5036612;28;20047;-61
2023/06/30 13:39:05;;;;;;;6.15;2.67;;;;;;;;;;5029944;28;20045;-61
2023/06/30 13:41:36;;;;;;;5.53;1.93;;;;;;;;;;5016162;28;20494;-62
2023/06/30 13:44:05;;;;;;;5.40;2.03;;;;;;;;;;5032530;28;20123;-61
2023/06/30 13:46:33;;;;;;;6.68;2.25;;;;;;;;;;4999085;28;20728;-61
2023/06/30 13:49:01;;;;;;;6.88;2.42;;;;;;;;;;5033878;28;20145;-62
2023/06/30 13:51:31;;;;;;;7.15;2.22;;;;;;;;;;5035433;28;20043;-62
2023/06/30 13:54:00;;;;;;;6.60;1.90;;;;;;;;;;5030012;28;20425;-62
2023/06/30 13:56:27;;;;;;;6.20;2.45;;;;;;;;;;5035535;28;20487;-61
2023/06/30 13:58:55;;;;;;;5.45;2.22;;;;;;;;;;5036416;28;20048;-61
2023/06/30 14:01:24;;;;;;;7.47;2.78;;;;;;;;;;5036374;28;20057;-61
2023/06/30 14:03:52;;;;;;;5.97;2.60;;;;;;;;;;5036520;28;20045;-61
2023/06/30 14:06:20;;;;;;;6.87;2.33;;;;;;;;;;5032073;28;20048;-62
2023/06/30 14:08:48;;;;;;;6.10;2.42;;;;;;;;;;5017500;28;20079;-61
2023/06/30 14:11:17;;;;;;;8.40;2.70;;;;;;;;;;5036468;28;20055;-60
2023/06/30 14:13:45;;;;;;;6.47;3.03;;;;;;;;;;5022398;28;20048;-58
2023/06/30 14:16:16;;;;;;;8.15;2.65;;;;;;;;;;5031071;28;20384;-59
2023/06/30 14:18:45;;;;;;;6.60;2.63;;;;;;;;;;5042044;28;20041;-60
2023/06/30 14:21:15;;;;;;;6.15;2.40;;;;;;;;;;5028127;28;20246;-60
2023/06/30 14:23:46;;;;;;;5.30;1.98;;;;;;;;;;5029834;28;20045;-61
2023/06/30 14:26:16;;;;;;;5.38;1.92;;;;;;;;;;5035104;28;20501;-61
2023/06/30 14:28:44;;;;;;;6.15;2.25;;;;;;;;;;5024331;28;20037;-60
2023/06/30 14:31:11;;;;;;;5.97;2.17;;;;;;;;;;5030075;28;20570;-60
2023/06/30 14:33:39;;;;;;;7.35;2.38;;;;;;;;;;5035530;28;20411;-60
2023/06/30 14:36:09;;;;;;;6.43;2.50;;;;;;;;;;5032431;28;20573;-61
2023/06/30 14:38:36;;;;;;;5.50;2.42;;;;;;;;;;5041786;28;20040;-60
2023/06/30 14:41:04;;;;;;;5.55;2.40;;;;;;;;;;5034908;28;20380;-60
2023/06/30 14:43:32;;;;;;;7.20;3.07;;;;;;;;;;5032066;28;20032;-60
2023/06/30 14:45:59;;;;;;;5.80;3.00;;;;;;;;;;5036882;28;20042;-60
2023/06/30 14:48:29;;;;;;;6.90;3.00;;;;;;;;;;5035150;28;20036;-60
2023/06/30 14:50:57;;;;;;;6.47;2.75;;;;;;;;;;5040264;28;20432;-60
2023/06/30 14:53:26;;;;;;;6.78;3.53;;;;;;;;;;4684843;28;10001154;-60